Terminal Aerodrome Forecast
Issued by NWS

Home | Current Version | Previous Version | Text Only | Print | Product List | Glossary On
Versions: 1 2 3 4 5 6 7 8 9 10 11 12 13 14
000
FTUS44 KTSA 310520
TAFRVS
TAF
KRVS 310520Z 3106/0106 13004KT P6SM SCT250
     FM310900 15003KT P6SM SCT110 BKN250
      TEMPO 3109/3113 5SM BR
     FM311400 17006KT P6SM FEW110 BKN250
     FM311900 18010KT P6SM FEW050 SCT250
     FM010100 16005KT P6SM SCT250=

USA.gov is the U.S. government's official web portal to all federal, state and local government web resources and services.